首页
METAR-TAF:

METAR-TAF

机场 :

Yeovilton, 英格兰

纬度: 51-00N, 经度: 002-38W, 海拔: 23米

当前天气观测

该预报发布于1小时和5分钟前的15:50 UTC
风速1节,风向南转西南
温度 7°C
湿度 87%
气压 1022 hPa
能见度10公里或以上
少量云层高于1200英尺
阴天层高于1800英尺

METAR: EGDY 241550Z 20001KT 9999 FEW012 OVC018 07/05 Q1022 TEMPO SCT012 RMK WHT TEMPO GRN

时间: 16:55 (16:55 UTC)

预报

该预报发布于6小时和19分钟前的10:36 UTC
预报有效从24日的 12点(UTC)到 24日的 21点(UTC)
风速3节,风向多变
能見度: 7000
少量云层高于500英尺
多云层高于1000英尺
几率 30% :
短暂存在
从 24日的 12点(UTC)到 24日的 21点(UTC)
能見度: 3000
散云层高于500英尺
小毛毛雨

TAF: EGDY 241036Z 2412/2421 VRB03KT 7000 HZ FEW005 BKN010 PROB30 TEMPO 2412/2421 3000 -DZ SCT005

超过4000个机场的气象观测和天气预报(METAR&TAF报告)。

可查询的气象台以黄色和红色小点在地图上表示。

将鼠标移到小点上方,可查看气象台名称。

然后点击查看天气观测和预报。

如需切换地图:点击带黑十字的绿色按钮放大地图;点击带横线的绿色按钮缩小地图;或者点击绿色箭头查看邻近地区的地图。


METAR-TAF: